Terminal Aerodrome Forecast
Issued by NWS

Home | Current Version | Previous Version | Text Only | Print | Product List | Glossary On
Versions: 1 2 3 4 5 6 7 8 9 10 11 12 13 14 15 16 17 18
000
FTUS46 KLOX 271000 AAA
TAFWJF
TAF AMD
KWJF 271038Z 2711/2806 VRB04KT P6SM BKN014 BKN035 OVC050
     FM271700 07007KT P6SM SCT080
     FM272000 27008KT P6SM SCT200
     FM280300 VRB05KT P6SM SCT200=

USA.gov is the U.S. government's official web portal to all federal, state and local government web resources and services.